sensor_id;sensor_type;location;lat;lon;timestamp;P1;durP1;ratioP1;P2;durP2;ratioP2
58310;SDS011;45001;52.218;5.154;2022-11-15T00:01:06;6.13;;;4.82;;
58310;SDS011;45001;52.218;5.154;2022-11-15T00:03:39;6.00;;;4.13;;
58310;SDS011;45001;52.218;5.154;2022-11-15T00:06:04;6.50;;;4.80;;
58310;SDS011;45001;52.218;5.154;2022-11-15T00:08:30;6.13;;;4.80;;
58310;SDS011;45001;52.218;5.154;2022-11-15T00:10:57;7.03;;;4.72;;
58310;SDS011;45001;52.218;5.154;2022-11-15T00:13:23;5.35;;;4.40;;
58310;SDS011;45001;52.218;5.154;2022-11-15T00:15:48;5.13;;;4.20;;
58310;SDS011;45001;52.218;5.154;2022-11-15T00:18:14;6.65;;;4.78;;
58310;SDS011;45001;52.218;5.154;2022-11-15T00:20:40;5.22;;;4.47;;
58310;SDS011;45001;52.218;5.154;2022-11-15T00:23:06;6.28;;;4.80;;
58310;SDS011;45001;52.218;5.154;2022-11-15T00:25:32;5.10;;;3.85;;
58310;SDS011;45001;52.218;5.154;2022-11-15T00:27:58;5.32;;;4.50;;
58310;SDS011;45001;52.218;5.154;2022-11-15T00:30:24;6.40;;;5.22;;
58310;SDS011;45001;52.218;5.154;2022-11-15T00:32:50;5.80;;;4.43;;
58310;SDS011;45001;52.218;5.154;2022-11-15T00:35:15;5.35;;;4.00;;
58310;SDS011;45001;52.218;5.154;2022-11-15T00:37:40;5.53;;;4.50;;
58310;SDS011;45001;52.218;5.154;2022-11-15T00:40:06;6.25;;;4.70;;
58310;SDS011;45001;52.218;5.154;2022-11-15T00:42:33;6.70;;;4.60;;
58310;SDS011;45001;52.218;5.154;2022-11-15T00:44:58;6.25;;;4.53;;
58310;SDS011;45001;52.218;5.154;2022-11-15T00:47:23;6.65;;;4.75;;
58310;SDS011;45001;52.218;5.154;2022-11-15T00:49:49;6.70;;;4.60;;
58310;SDS011;45001;52.218;5.154;2022-11-15T00:52:14;6.28;;;4.47;;
58310;SDS011;45001;52.218;5.154;2022-11-15T00:54:39;4.95;;;4.43;;
58310;SDS011;45001;52.218;5.154;2022-11-15T00:57:04;5.88;;;4.55;;
58310;SDS011;45001;52.218;5.154;2022-11-15T00:59:30;4.90;;;4.22;;
58310;SDS011;45001;52.218;5.154;2022-11-15T01:01:55;6.00;;;4.50;;
58310;SDS011;45001;52.218;5.154;2022-11-15T01:04:20;5.47;;;4.75;;
58310;SDS011;45001;52.218;5.154;2022-11-15T01:06:48;5.88;;;4.20;;
58310;SDS011;45001;52.218;5.154;2022-11-15T01:09:13;6.75;;;4.72;;
58310;SDS011;45001;52.218;5.154;2022-11-15T01:11:39;6.57;;;4.70;;
58310;SDS011;45001;52.218;5.154;2022-11-15T01:14:04;5.35;;;4.15;;
58310;SDS011;45001;52.218;5.154;2022-11-15T01:16:30;6.28;;;4.65;;
58310;SDS011;45001;52.218;5.154;2022-11-15T01:18:55;5.60;;;4.20;;
58310;SDS011;45001;52.218;5.154;2022-11-15T01:21:20;5.55;;;4.85;;
58310;SDS011;45001;52.218;5.154;2022-11-15T01:23:46;5.22;;;4.05;;
58310;SDS011;45001;52.218;5.154;2022-11-15T01:26:13;6.15;;;4.65;;
58310;SDS011;45001;52.218;5.154;2022-11-15T01:28:40;7.68;;;4.70;;
58310;SDS011;45001;52.218;5.154;2022-11-15T01:31:13;6.30;;;4.45;;
58310;SDS011;45001;52.218;5.154;2022-11-15T01:33:40;7.00;;;4.50;;
58310;SDS011;45001;52.218;5.154;2022-11-15T01:36:10;6.72;;;4.80;;
58310;SDS011;45001;52.218;5.154;2022-11-15T01:38:38;5.70;;;4.40;;
58310;SDS011;45001;52.218;5.154;2022-11-15T01:41:03;6.38;;;4.57;;
58310;SDS011;45001;52.218;5.154;2022-11-15T01:43:31;6.07;;;4.80;;
58310;SDS011;45001;52.218;5.154;2022-11-15T01:46:06;7.35;;;4.80;;
58310;SDS011;45001;52.218;5.154;2022-11-15T01:51:15;6.28;;;4.47;;
58310;SDS011;45001;52.218;5.154;2022-11-15T01:53:43;7.07;;;5.63;;
58310;SDS011;45001;52.218;5.154;2022-11-15T01:56:11;6.07;;;4.25;;
58310;SDS011;45001;52.218;5.154;2022-11-15T02:01:07;6.40;;;4.70;;
58310;SDS011;45001;52.218;5.154;2022-11-15T02:03:43;6.30;;;4.57;;
58310;SDS011;45001;52.218;5.154;2022-11-15T02:06:20;5.85;;;4.63;;
58310;SDS011;45001;52.218;5.154;2022-11-15T02:08:47;6.32;;;4.25;;
58310;SDS011;45001;52.218;5.154;2022-11-15T02:11:12;5.88;;;4.38;;
58310;SDS011;45001;52.218;5.154;2022-11-15T02:13:38;5.60;;;4.47;;
58310;SDS011;45001;52.218;5.154;2022-11-15T02:19:00;6.03;;;4.90;;
58310;SDS011;45001;52.218;5.154;2022-11-15T02:33:18;6.45;;;4.75;;
58310;SDS011;45001;52.218;5.154;2022-11-15T02:36:52;6.32;;;4.45;;
58310;SDS011;45001;52.218;5.154;2022-11-15T02:39:13;6.10;;;4.50;;
58310;SDS011;45001;52.218;5.154;2022-11-15T02:41:49;6.38;;;4.72;;
58310;SDS011;45001;52.218;5.154;2022-11-15T02:44:31;5.65;;;4.30;;
58310;SDS011;45001;52.218;5.154;2022-11-15T02:47:03;6.00;;;4.50;;
58310;SDS011;45001;52.218;5.154;2022-11-15T02:49:37;6.75;;;4.72;;
58310;SDS011;45001;52.218;5.154;2022-11-15T02:52:04;6.60;;;4.50;;
58310;SDS011;45001;52.218;5.154;2022-11-15T02:54:31;6.40;;;4.63;;
58310;SDS011;45001;52.218;5.154;2022-11-15T02:57:01;6.90;;;4.68;;
58310;SDS011;45001;52.218;5.154;2022-11-15T03:05:08;6.40;;;4.90;;
58310;SDS011;45001;52.218;5.154;2022-11-15T03:07:54;6.68;;;4.63;;
58310;SDS011;45001;52.218;5.154;2022-11-15T03:12:54;6.80;;;4.65;;
58310;SDS011;45001;52.218;5.154;2022-11-15T03:15:22;6.88;;;4.75;;
58310;SDS011;45001;52.218;5.154;2022-11-15T03:18:00;5.70;;;4.60;;
58310;SDS011;45001;52.218;5.154;2022-11-15T03:20:29;6.00;;;4.90;;
58310;SDS011;45001;52.218;5.154;2022-11-15T03:23:00;6.97;;;4.63;;
58310;SDS011;45001;52.218;5.154;2022-11-15T03:25:29;6.97;;;4.47;;
58310;SDS011;45001;52.218;5.154;2022-11-15T03:27:57;6.57;;;4.57;;
58310;SDS011;45001;52.218;5.154;2022-11-15T03:30:27;6.93;;;4.97;;
58310;SDS011;45001;52.218;5.154;2022-11-15T03:32:54;7.07;;;4.80;;
58310;SDS011;45001;52.218;5.154;2022-11-15T03:35:22;6.15;;;4.80;;
58310;SDS011;45001;52.218;5.154;2022-11-15T03:37:53;7.22;;;4.68;;
58310;SDS011;45001;52.218;5.154;2022-11-15T03:40:25;6.93;;;4.78;;
58310;SDS011;45001;52.218;5.154;2022-11-15T03:43:06;6.30;;;4.40;;
58310;SDS011;45001;52.218;5.154;2022-11-15T03:46:01;6.28;;;4.30;;
58310;SDS011;45001;52.218;5.154;2022-11-15T03:48:35;7.53;;;5.43;;
58310;SDS011;45001;52.218;5.154;2022-11-15T03:51:04;7.53;;;4.95;;
58310;SDS011;45001;52.218;5.154;2022-11-15T03:53:30;7.00;;;4.75;;
58310;SDS011;45001;52.218;5.154;2022-11-15T03:55:56;7.05;;;4.93;;
58310;SDS011;45001;52.218;5.154;2022-11-15T03:58:23;6.72;;;4.40;;
58310;SDS011;45001;52.218;5.154;2022-11-15T04:00:48;8.63;;;5.65;;
58310;SDS011;45001;52.218;5.154;2022-11-15T04:03:14;7.35;;;4.82;;
58310;SDS011;45001;52.218;5.154;2022-11-15T04:05:39;6.55;;;4.93;;
58310;SDS011;45001;52.218;5.154;2022-11-15T04:08:04;8.13;;;5.95;;
58310;SDS011;45001;52.218;5.154;2022-11-15T04:10:30;6.60;;;4.82;;
58310;SDS011;45001;52.218;5.154;2022-11-15T04:12:55;7.50;;;5.13;;
58310;SDS011;45001;52.218;5.154;2022-11-15T04:15:22;6.13;;;4.95;;
58310;SDS011;45001;52.218;5.154;2022-11-15T04:20:19;6.40;;;4.53;;
58310;SDS011;45001;52.218;5.154;2022-11-15T04:23:04;5.95;;;4.22;;
58310;SDS011;45001;52.218;5.154;2022-11-15T04:25:50;8.60;;;4.93;;
58310;SDS011;45001;52.218;5.154;2022-11-15T04:28:17;6.32;;;4.47;;
58310;SDS011;45001;52.218;5.154;2022-11-15T04:30:43;4.88;;;3.70;;
58310;SDS011;45001;52.218;5.154;2022-11-15T04:33:09;5.07;;;3.88;;
58310;SDS011;45001;52.218;5.154;2022-11-15T04:35:34;4.93;;;4.25;;
58310;SDS011;45001;52.218;5.154;2022-11-15T04:38:00;5.97;;;4.00;;
58310;SDS011;45001;52.218;5.154;2022-11-15T04:40:26;4.85;;;3.80;;
58310;SDS011;45001;52.218;5.154;2022-11-15T04:42:51;6.15;;;4.50;;
58310;SDS011;45001;52.218;5.154;2022-11-15T04:45:17;6.20;;;3.97;;
58310;SDS011;45001;52.218;5.154;2022-11-15T04:47:43;5.97;;;4.25;;
58310;SDS011;45001;52.218;5.154;2022-11-15T04:50:10;6.90;;;4.40;;
58310;SDS011;45001;52.218;5.154;2022-11-15T04:52:38;6.65;;;4.35;;
58310;SDS011;45001;52.218;5.154;2022-11-15T04:55:04;6.93;;;4.63;;
58310;SDS011;45001;52.218;5.154;2022-11-15T04:57:30;6.50;;;4.40;;
58310;SDS011;45001;52.218;5.154;2022-11-15T04:59:55;4.90;;;3.95;;
58310;SDS011;45001;52.218;5.154;2022-11-15T05:02:20;5.70;;;3.95;;
58310;SDS011;45001;52.218;5.154;2022-11-15T05:04:46;5.57;;;3.70;;
58310;SDS011;45001;52.218;5.154;2022-11-15T05:07:11;5.22;;;3.90;;
58310;SDS011;45001;52.218;5.154;2022-11-15T05:09:36;5.38;;;3.65;;
58310;SDS011;45001;52.218;5.154;2022-11-15T05:12:04;4.90;;;3.75;;
58310;SDS011;45001;52.218;5.154;2022-11-15T05:14:29;6.38;;;4.50;;
58310;SDS011;45001;52.218;5.154;2022-11-15T05:16:54;5.75;;;3.78;;
58310;SDS011;45001;52.218;5.154;2022-11-15T05:19:20;5.45;;;3.90;;
58310;SDS011;45001;52.218;5.154;2022-11-15T05:21:45;5.82;;;3.83;;
58310;SDS011;45001;52.218;5.154;2022-11-15T05:24:11;6.45;;;4.10;;
58310;SDS011;45001;52.218;5.154;2022-11-15T05:26:37;6.55;;;3.95;;
58310;SDS011;45001;52.218;5.154;2022-11-15T05:29:02;5.03;;;3.50;;
58310;SDS011;45001;52.218;5.154;2022-11-15T05:31:27;5.22;;;4.03;;
58310;SDS011;45001;52.218;5.154;2022-11-15T05:33:53;5.57;;;3.72;;
58310;SDS011;45001;52.218;5.154;2022-11-15T05:36:28;5.30;;;3.95;;
58310;SDS011;45001;52.218;5.154;2022-11-15T05:38:57;5.15;;;3.80;;
58310;SDS011;45001;52.218;5.154;2022-11-15T05:41:33;5.25;;;3.80;;
58310;SDS011;45001;52.218;5.154;2022-11-15T05:44:01;5.10;;;3.75;;
58310;SDS011;45001;52.218;5.154;2022-11-15T05:46:30;5.03;;;3.55;;
58310;SDS011;45001;52.218;5.154;2022-11-15T05:48:58;6.18;;;3.78;;
58310;SDS011;45001;52.218;5.154;2022-11-15T05:51:24;5.13;;;3.70;;
58310;SDS011;45001;52.218;5.154;2022-11-15T05:53:50;5.85;;;3.70;;
58310;SDS011;45001;52.218;5.154;2022-11-15T05:56:17;4.95;;;3.42;;
58310;SDS011;45001;52.218;5.154;2022-11-15T05:58:43;4.80;;;3.22;;
58310;SDS011;45001;52.218;5.154;2022-11-15T06:01:08;4.57;;;3.63;;
58310;SDS011;45001;52.218;5.154;2022-11-15T06:03:34;4.60;;;3.28;;
58310;SDS011;45001;52.218;5.154;2022-11-15T06:05:59;5.15;;;3.60;;
58310;SDS011;45001;52.218;5.154;2022-11-15T06:08:25;8.02;;;3.83;;
58310;SDS011;45001;52.218;5.154;2022-11-15T06:10:50;6.47;;;3.70;;
58310;SDS011;45001;52.218;5.154;2022-11-15T06:13:15;5.95;;;3.70;;
58310;SDS011;45001;52.218;5.154;2022-11-15T06:15:40;7.65;;;3.75;;
58310;SDS011;45001;52.218;5.154;2022-11-15T06:18:06;9.32;;;3.72;;
58310;SDS011;45001;52.218;5.154;2022-11-15T06:20:31;8.82;;;4.55;;
58310;SDS011;45001;52.218;5.154;2022-11-15T06:23:00;10.65;;;5.18;;
58310;SDS011;45001;52.218;5.154;2022-11-15T06:25:27;6.78;;;4.72;;
58310;SDS011;45001;52.218;5.154;2022-11-15T06:27:53;7.30;;;4.32;;
58310;SDS011;45001;52.218;5.154;2022-11-15T06:30:20;17.77;;;4.55;;
58310;SDS011;45001;52.218;5.154;2022-11-15T06:32:46;9.50;;;4.40;;
58310;SDS011;45001;52.218;5.154;2022-11-15T06:35:11;7.80;;;4.32;;
58310;SDS011;45001;52.218;5.154;2022-11-15T06:37:37;7.35;;;4.20;;
58310;SDS011;45001;52.218;5.154;2022-11-15T06:40:02;8.68;;;4.10;;
58310;SDS011;45001;52.218;5.154;2022-11-15T06:42:28;9.35;;;4.28;;
58310;SDS011;45001;52.218;5.154;2022-11-15T06:44:53;6.82;;;3.85;;
58310;SDS011;45001;52.218;5.154;2022-11-15T06:47:19;8.30;;;3.97;;
58310;SDS011;45001;52.218;5.154;2022-11-15T06:49:44;6.82;;;3.70;;
58310;SDS011;45001;52.218;5.154;2022-11-15T06:52:09;5.95;;;3.40;;
58310;SDS011;45001;52.218;5.154;2022-11-15T06:54:35;6.70;;;3.40;;
58310;SDS011;45001;52.218;5.154;2022-11-15T06:57:00;7.95;;;3.92;;
58310;SDS011;45001;52.218;5.154;2022-11-15T06:59:25;5.00;;;3.75;;
58310;SDS011;45001;52.218;5.154;2022-11-15T07:01:50;7.38;;;4.13;;
58310;SDS011;45001;52.218;5.154;2022-11-15T07:04:16;9.40;;;3.65;;
58310;SDS011;45001;52.218;5.154;2022-11-15T07:06:41;5.75;;;3.60;;
58310;SDS011;45001;52.218;5.154;2022-11-15T07:09:06;6.93;;;3.47;;
58310;SDS011;45001;52.218;5.154;2022-11-15T07:11:32;7.25;;;3.60;;
58310;SDS011;45001;52.218;5.154;2022-11-15T07:14:00;8.90;;;3.50;;
58310;SDS011;45001;52.218;5.154;2022-11-15T07:16:26;6.13;;;3.03;;
58310;SDS011;45001;52.218;5.154;2022-11-15T07:18:51;7.13;;;3.47;;
58310;SDS011;45001;52.218;5.154;2022-11-15T07:21:17;5.05;;;3.15;;
58310;SDS011;45001;52.218;5.154;2022-11-15T07:23:42;4.68;;;3.40;;
58310;SDS011;45001;52.218;5.154;2022-11-15T07:26:08;6.85;;;3.47;;
58310;SDS011;45001;52.218;5.154;2022-11-15T07:28:33;7.75;;;3.55;;
58310;SDS011;45001;52.218;5.154;2022-11-15T07:31:06;4.25;;;2.80;;
58310;SDS011;45001;52.218;5.154;2022-11-15T07:33:33;5.32;;;3.38;;
58310;SDS011;45001;52.218;5.154;2022-11-15T07:36:03;5.68;;;3.30;;
58310;SDS011;45001;52.218;5.154;2022-11-15T07:38:30;4.65;;;3.28;;
58310;SDS011;45001;52.218;5.154;2022-11-15T07:40:56;4.38;;;3.03;;
58310;SDS011;45001;52.218;5.154;2022-11-15T07:43:23;4.25;;;2.90;;
58310;SDS011;45001;52.218;5.154;2022-11-15T07:45:52;5.22;;;2.95;;
58310;SDS011;45001;52.218;5.154;2022-11-15T07:48:18;3.95;;;2.70;;
58310;SDS011;45001;52.218;5.154;2022-11-15T07:50:43;4.90;;;2.80;;
58310;SDS011;45001;52.218;5.154;2022-11-15T07:53:09;5.47;;;2.88;;
58310;SDS011;45001;52.218;5.154;2022-11-15T07:55:35;4.35;;;2.78;;
58310;SDS011;45001;52.218;5.154;2022-11-15T07:58:05;4.43;;;2.90;;
58310;SDS011;45001;52.218;5.154;2022-11-15T08:00:32;6.28;;;3.03;;
58310;SDS011;45001;52.218;5.154;2022-11-15T08:03:01;4.15;;;2.63;;
58310;SDS011;45001;52.218;5.154;2022-11-15T08:05:31;5.05;;;2.70;;
58310;SDS011;45001;52.218;5.154;2022-11-15T08:07:57;5.40;;;2.60;;
58310;SDS011;45001;52.218;5.154;2022-11-15T08:10:23;5.82;;;2.30;;
58310;SDS011;45001;52.218;5.154;2022-11-15T08:12:56;4.53;;;2.38;;
58310;SDS011;45001;52.218;5.154;2022-11-15T08:15:22;3.28;;;2.47;;
58310;SDS011;45001;52.218;5.154;2022-11-15T08:17:50;4.75;;;2.50;;
58310;SDS011;45001;52.218;5.154;2022-11-15T08:20:18;3.97;;;2.85;;
58310;SDS011;45001;52.218;5.154;2022-11-15T08:22:44;5.20;;;2.72;;
58310;SDS011;45001;52.218;5.154;2022-11-15T08:25:09;4.78;;;2.80;;
58310;SDS011;45001;52.218;5.154;2022-11-15T08:27:35;5.05;;;2.70;;
58310;SDS011;45001;52.218;5.154;2022-11-15T08:30:00;5.80;;;3.08;;
58310;SDS011;45001;52.218;5.154;2022-11-15T08:32:26;3.53;;;2.58;;
58310;SDS011;45001;52.218;5.154;2022-11-15T08:34:51;5.65;;;2.95;;
58310;SDS011;45001;52.218;5.154;2022-11-15T08:37:17;5.25;;;2.60;;
58310;SDS011;45001;52.218;5.154;2022-11-15T08:39:42;5.88;;;3.17;;
58310;SDS011;45001;52.218;5.154;2022-11-15T08:42:07;5.65;;;2.58;;
58310;SDS011;45001;52.218;5.154;2022-11-15T08:44:36;5.22;;;3.10;;
58310;SDS011;45001;52.218;5.154;2022-11-15T08:47:01;5.05;;;3.08;;
58310;SDS011;45001;52.218;5.154;2022-11-15T08:49:26;3.63;;;2.55;;
58310;SDS011;45001;52.218;5.154;2022-11-15T08:51:52;4.13;;;2.58;;
58310;SDS011;45001;52.218;5.154;2022-11-15T08:54:17;6.13;;;2.67;;
58310;SDS011;45001;52.218;5.154;2022-11-15T08:56:42;3.42;;;2.55;;
58310;SDS011;45001;52.218;5.154;2022-11-15T08:59:07;4.18;;;2.40;;
58310;SDS011;45001;52.218;5.154;2022-11-15T09:01:33;5.53;;;2.63;;
58310;SDS011;45001;52.218;5.154;2022-11-15T09:03:58;3.45;;;2.38;;
58310;SDS011;45001;52.218;5.154;2022-11-15T09:06:23;7.30;;;2.70;;
58310;SDS011;45001;52.218;5.154;2022-11-15T09:08:49;5.35;;;2.80;;
58310;SDS011;45001;52.218;5.154;2022-11-15T09:11:14;3.47;;;2.22;;
58310;SDS011;45001;52.218;5.154;2022-11-15T09:13:41;4.60;;;2.67;;
58310;SDS011;45001;52.218;5.154;2022-11-15T09:16:06;4.38;;;2.30;;
58310;SDS011;45001;52.218;5.154;2022-11-15T09:18:32;3.97;;;2.35;;
58310;SDS011;45001;52.218;5.154;2022-11-15T09:20:58;4.38;;;2.20;;
58310;SDS011;45001;52.218;5.154;2022-11-15T09:23:25;3.03;;;2.00;;
58310;SDS011;45001;52.218;5.154;2022-11-15T09:25:51;3.28;;;2.20;;
58310;SDS011;45001;52.218;5.154;2022-11-15T09:28:16;4.32;;;2.35;;
58310;SDS011;45001;52.218;5.154;2022-11-15T09:30:42;3.92;;;2.28;;
58310;SDS011;45001;52.218;5.154;2022-11-15T09:33:08;4.05;;;2.20;;
58310;SDS011;45001;52.218;5.154;2022-11-15T09:35:35;5.00;;;2.60;;
58310;SDS011;45001;52.218;5.154;2022-11-15T09:38:00;4.63;;;2.50;;
58310;SDS011;45001;52.218;5.154;2022-11-15T09:40:26;3.47;;;2.30;;
58310;SDS011;45001;52.218;5.154;2022-11-15T09:43:08;5.32;;;2.22;;
58310;SDS011;45001;52.218;5.154;2022-11-15T09:45:55;4.70;;;2.83;;
58310;SDS011;45001;52.218;5.154;2022-11-15T09:56:30;6.20;;;2.00;;
58310;SDS011;45001;52.218;5.154;2022-11-15T09:59:03;5.20;;;2.05;;
58310;SDS011;45001;52.218;5.154;2022-11-15T10:04:10;6.25;;;2.13;;
58310;SDS011;45001;52.218;5.154;2022-11-15T10:06:37;6.03;;;2.55;;
58310;SDS011;45001;52.218;5.154;2022-11-15T10:09:17;3.15;;;1.92;;
58310;SDS011;45001;52.218;5.154;2022-11-15T10:11:49;4.00;;;2.35;;
58310;SDS011;45001;52.218;5.154;2022-11-15T10:14:15;4.63;;;2.03;;
58310;SDS011;45001;52.218;5.154;2022-11-15T10:25:21;4.50;;;2.10;;
58310;SDS011;45001;52.218;5.154;2022-11-15T10:30:50;3.55;;;1.70;;
58310;SDS011;45001;52.218;5.154;2022-11-15T10:36:17;2.90;;;1.70;;
58310;SDS011;45001;52.218;5.154;2022-11-15T10:41:13;3.75;;;2.05;;
58310;SDS011;45001;52.218;5.154;2022-11-15T10:43:40;3.88;;;1.60;;
58310;SDS011;45001;52.218;5.154;2022-11-15T10:46:22;2.83;;;1.80;;
58310;SDS011;45001;52.218;5.154;2022-11-15T10:48:48;2.45;;;1.48;;
58310;SDS011;45001;52.218;5.154;2022-11-15T10:51:26;3.38;;;1.90;;
58310;SDS011;45001;52.218;5.154;2022-11-15T10:53:54;2.85;;;1.58;;
58310;SDS011;45001;52.218;5.154;2022-11-15T10:56:22;5.00;;;1.45;;
58310;SDS011;45001;52.218;5.154;2022-11-15T10:58:51;2.90;;;1.83;;
58310;SDS011;45001;52.218;5.154;2022-11-15T11:01:20;3.90;;;1.75;;
58310;SDS011;45001;52.218;5.154;2022-11-15T11:03:58;3.10;;;1.75;;
58310;SDS011;45001;52.218;5.154;2022-11-15T11:06:32;3.33;;;1.50;;
58310;SDS011;45001;52.218;5.154;2022-11-15T11:09:22;3.30;;;1.60;;
58310;SDS011;45001;52.218;5.154;2022-11-15T11:11:57;4.00;;;1.63;;
58310;SDS011;45001;52.218;5.154;2022-11-15T11:14:24;3.75;;;1.77;;
58310;SDS011;45001;52.218;5.154;2022-11-15T11:34:03;3.58;;;1.50;;
58310;SDS011;45001;52.218;5.154;2022-11-15T11:42:14;2.78;;;1.33;;
58310;SDS011;45001;52.218;5.154;2022-11-15T11:47:15;3.83;;;1.48;;
58310;SDS011;45001;52.218;5.154;2022-11-15T11:49:55;2.33;;;1.35;;
58310;SDS011;45001;52.218;5.154;2022-11-15T11:52:26;4.45;;;1.70;;
58310;SDS011;45001;52.218;5.154;2022-11-15T12:05:44;2.17;;;1.20;;
58310;SDS011;45001;52.218;5.154;2022-11-15T12:08:27;2.83;;;1.38;;
58310;SDS011;45001;52.218;5.154;2022-11-15T12:11:00;2.55;;;1.25;;
58310;SDS011;45001;52.218;5.154;2022-11-15T12:13:34;3.53;;;1.10;;
58310;SDS011;45001;52.218;5.154;2022-11-15T12:18:37;2.72;;;1.33;;
58310;SDS011;45001;52.218;5.154;2022-11-15T12:21:07;5.45;;;1.70;;
58310;SDS011;45001;52.218;5.154;2022-11-15T12:24:12;2.88;;;1.52;;
58310;SDS011;45001;52.218;5.154;2022-11-15T12:26:57;1.70;;;1.00;;
58310;SDS011;45001;52.218;5.154;2022-11-15T12:29:45;2.90;;;1.10;;
58310;SDS011;45001;52.218;5.154;2022-11-15T12:34:51;2.78;;;1.00;;
58310;SDS011;45001;52.218;5.154;2022-11-15T12:40:21;2.88;;;1.00;;
58310;SDS011;45001;52.218;5.154;2022-11-15T12:43:01;1.95;;;1.05;;
58310;SDS011;45001;52.218;5.154;2022-11-15T12:45:31;2.15;;;0.77;;
58310;SDS011;45001;52.218;5.154;2022-11-15T12:59:38;3.97;;;1.10;;
58310;SDS011;45001;52.218;5.154;2022-11-15T13:06:58;2.65;;;1.02;;
58310;SDS011;45001;52.218;5.154;2022-11-15T13:11:58;2.10;;;0.93;;
58310;SDS011;45001;52.218;5.154;2022-11-15T13:17:35;3.08;;;1.23;;
58310;SDS011;45001;52.218;5.154;2022-11-15T13:22:43;1.77;;;1.17;;
58310;SDS011;45001;52.218;5.154;2022-11-15T13:30:39;2.30;;;0.90;;
58310;SDS011;45001;52.218;5.154;2022-11-15T13:33:24;2.35;;;0.93;;
58310;SDS011;45001;52.218;5.154;2022-11-15T13:36:00;1.75;;;0.70;;
58310;SDS011;45001;52.218;5.154;2022-11-15T13:38:29;1.42;;;0.80;;
58310;SDS011;45001;52.218;5.154;2022-11-15T13:40:56;1.75;;;0.75;;
58310;SDS011;45001;52.218;5.154;2022-11-15T13:46:04;1.73;;;0.70;;
58310;SDS011;45001;52.218;5.154;2022-11-15T13:48:37;3.00;;;1.40;;
58310;SDS011;45001;52.218;5.154;2022-11-15T13:51:08;3.75;;;0.88;;
58310;SDS011;45001;52.218;5.154;2022-11-15T13:53:41;2.88;;;0.70;;
58310;SDS011;45001;52.218;5.154;2022-11-15T13:56:11;2.25;;;0.98;;
58310;SDS011;45001;52.218;5.154;2022-11-15T13:58:38;3.60;;;1.10;;
58310;SDS011;45001;52.218;5.154;2022-11-15T14:01:04;3.80;;;0.90;;
58310;SDS011;45001;52.218;5.154;2022-11-15T14:03:31;1.98;;;0.82;;
58310;SDS011;45001;52.218;5.154;2022-11-15T14:06:31;2.90;;;1.00;;
58310;SDS011;45001;52.218;5.154;2022-11-15T14:11:25;3.95;;;1.20;;
58310;SDS011;45001;52.218;5.154;2022-11-15T14:14:25;3.63;;;0.90;;
58310;SDS011;45001;52.218;5.154;2022-11-15T14:16:46;2.72;;;0.80;;
58310;SDS011;45001;52.218;5.154;2022-11-15T14:19:32;3.05;;;1.00;;
58310;SDS011;45001;52.218;5.154;2022-11-15T14:22:20;4.10;;;0.90;;
58310;SDS011;45001;52.218;5.154;2022-11-15T14:27:31;2.08;;;0.85;;
58310;SDS011;45001;52.218;5.154;2022-11-15T14:29:57;2.78;;;0.93;;
58310;SDS011;45001;52.218;5.154;2022-11-15T14:32:23;3.10;;;0.82;;
58310;SDS011;45001;52.218;5.154;2022-11-15T14:35:11;2.40;;;0.90;;
58310;SDS011;45001;52.218;5.154;2022-11-15T14:37:40;2.08;;;0.80;;
58310;SDS011;45001;52.218;5.154;2022-11-15T14:40:05;2.28;;;0.90;;
58310;SDS011;45001;52.218;5.154;2022-11-15T14:42:31;2.03;;;0.82;;
58310;SDS011;45001;52.218;5.154;2022-11-15T14:44:57;3.10;;;0.90;;
58310;SDS011;45001;52.218;5.154;2022-11-15T14:47:22;2.70;;;0.90;;
58310;SDS011;45001;52.218;5.154;2022-11-15T14:49:48;3.25;;;0.77;;
58310;SDS011;45001;52.218;5.154;2022-11-15T14:52:26;3.03;;;1.10;;
58310;SDS011;45001;52.218;5.154;2022-11-15T14:54:52;3.38;;;0.90;;
58310;SDS011;45001;52.218;5.154;2022-11-15T14:57:18;3.10;;;0.98;;
58310;SDS011;45001;52.218;5.154;2022-11-15T14:59:43;1.77;;;0.80;;
58310;SDS011;45001;52.218;5.154;2022-11-15T15:02:42;3.72;;;1.00;;
58310;SDS011;45001;52.218;5.154;2022-11-15T15:05:00;2.85;;;0.98;;
58310;SDS011;45001;52.218;5.154;2022-11-15T15:07:28;2.08;;;0.70;;
58310;SDS011;45001;52.218;5.154;2022-11-15T15:09:53;5.43;;;1.20;;
58310;SDS011;45001;52.218;5.154;2022-11-15T15:12:22;3.25;;;0.93;;
58310;SDS011;45001;52.218;5.154;2022-11-15T15:14:49;5.93;;;1.10;;
58310;SDS011;45001;52.218;5.154;2022-11-15T15:17:15;4.38;;;1.00;;
58310;SDS011;45001;52.218;5.154;2022-11-15T15:19:41;5.25;;;0.90;;
58310;SDS011;45001;52.218;5.154;2022-11-15T15:22:14;3.50;;;1.02;;
58310;SDS011;45001;52.218;5.154;2022-11-15T15:24:43;2.60;;;0.70;;
58310;SDS011;45001;52.218;5.154;2022-11-15T15:27:09;3.30;;;0.93;;
58310;SDS011;45001;52.218;5.154;2022-11-15T15:29:35;3.40;;;1.10;;
58310;SDS011;45001;52.218;5.154;2022-11-15T15:32:00;3.97;;;1.25;;
58310;SDS011;45001;52.218;5.154;2022-11-15T15:34:26;4.20;;;1.10;;
58310;SDS011;45001;52.218;5.154;2022-11-15T15:39:52;2.15;;;0.70;;
58310;SDS011;45001;52.218;5.154;2022-11-15T15:42:21;2.55;;;0.80;;
58310;SDS011;45001;52.218;5.154;2022-11-15T15:44:48;1.88;;;0.80;;
58310;SDS011;45001;52.218;5.154;2022-11-15T15:47:15;2.60;;;0.80;;
58310;SDS011;45001;52.218;5.154;2022-11-15T15:49:43;3.28;;;0.90;;
58310;SDS011;45001;52.218;5.154;2022-11-15T15:52:08;1.60;;;0.85;;
58310;SDS011;45001;52.218;5.154;2022-11-15T15:54:33;2.53;;;1.00;;
58310;SDS011;45001;52.218;5.154;2022-11-15T15:56:59;4.57;;;1.33;;
58310;SDS011;45001;52.218;5.154;2022-11-15T15:59:24;3.15;;;0.80;;
58310;SDS011;45001;52.218;5.154;2022-11-15T16:01:49;3.35;;;0.90;;
58310;SDS011;45001;52.218;5.154;2022-11-15T16:04:15;1.95;;;0.68;;
58310;SDS011;45001;52.218;5.154;2022-11-15T16:06:40;2.08;;;0.80;;
58310;SDS011;45001;52.218;5.154;2022-11-15T16:09:15;3.53;;;0.75;;
58310;SDS011;45001;52.218;5.154;2022-11-15T16:11:45;5.97;;;0.90;;
58310;SDS011;45001;52.218;5.154;2022-11-15T16:14:11;1.90;;;0.65;;
58310;SDS011;45001;52.218;5.154;2022-11-15T16:16:37;1.67;;;0.70;;
58310;SDS011;45001;52.218;5.154;2022-11-15T16:19:03;2.75;;;0.93;;
58310;SDS011;45001;52.218;5.154;2022-11-15T16:21:29;2.05;;;0.82;;
58310;SDS011;45001;52.218;5.154;2022-11-15T16:23:55;1.77;;;1.10;;
58310;SDS011;45001;52.218;5.154;2022-11-15T16:26:22;2.17;;;0.80;;
58310;SDS011;45001;52.218;5.154;2022-11-15T16:28:50;2.70;;;0.95;;
58310;SDS011;45001;52.218;5.154;2022-11-15T16:31:16;4.82;;;1.00;;
58310;SDS011;45001;52.218;5.154;2022-11-15T16:33:43;2.70;;;1.08;;
58310;SDS011;45001;52.218;5.154;2022-11-15T16:36:15;2.83;;;0.75;;
58310;SDS011;45001;52.218;5.154;2022-11-15T16:38:49;3.30;;;0.98;;
58310;SDS011;45001;52.218;5.154;2022-11-15T16:41:15;1.50;;;0.70;;
58310;SDS011;45001;52.218;5.154;2022-11-15T16:43:46;2.20;;;0.73;;
58310;SDS011;45001;52.218;5.154;2022-11-15T16:46:20;2.63;;;0.80;;
58310;SDS011;45001;52.218;5.154;2022-11-15T16:48:50;1.95;;;0.90;;
58310;SDS011;45001;52.218;5.154;2022-11-15T16:51:16;1.88;;;0.85;;
58310;SDS011;45001;52.218;5.154;2022-11-15T16:53:42;2.42;;;0.80;;
58310;SDS011;45001;52.218;5.154;2022-11-15T16:56:27;3.13;;;0.90;;
58310;SDS011;45001;52.218;5.154;2022-11-15T16:58:55;2.75;;;0.90;;
58310;SDS011;45001;52.218;5.154;2022-11-15T17:01:26;1.50;;;0.73;;
58310;SDS011;45001;52.218;5.154;2022-11-15T17:03:53;3.83;;;1.10;;
58310;SDS011;45001;52.218;5.154;2022-11-15T17:06:19;2.78;;;0.80;;
58310;SDS011;45001;52.218;5.154;2022-11-15T17:08:45;3.75;;;1.05;;
58310;SDS011;45001;52.218;5.154;2022-11-15T17:11:14;2.60;;;1.10;;
58310;SDS011;45001;52.218;5.154;2022-11-15T17:13:41;4.18;;;1.08;;
58310;SDS011;45001;52.218;5.154;2022-11-15T17:16:08;3.33;;;0.90;;
58310;SDS011;45001;52.218;5.154;2022-11-15T17:18:35;2.58;;;1.00;;
58310;SDS011;45001;52.218;5.154;2022-11-15T17:21:03;2.25;;;0.95;;